N636CX KSAN-KMYF
Flight info
| Callsign | N636CX |
|---|---|
| Flight time | N/A |
| Altitude | VFR |
| Route | |
| Aircraft | AS21/L-V/C |
Departure
| Time | 2026-05-04 19:28 |
|---|---|
| Airport | San Diego International Airport (KSAN) |
Arrival
| Time | N/A |
|---|---|
| Airport | Montgomery-Gibbs Executive Airport (KMYF) |
| Time | Latitude | Longitude | Altitude | Speed | Heading |
|---|---|---|---|---|---|
| 2026-05-04 19:28 | 32.74122 | -117.21491 | 1571 ft | 66 kts | 309° |
| 2026-05-04 19:28 | 32.74539 | -117.21744 | 1791 ft | 68 kts | 331° |
| 2026-05-04 19:29 | 32.74972 | -117.21976 | 1934 ft | 75 kts | 324° |
| 2026-05-04 19:29 | 32.75456 | -117.22302 | 2073 ft | 82 kts | 327° |
| 2026-05-04 19:29 | 32.75973 | -117.22588 | 2309 ft | 78 kts | 329° |
| 2026-05-04 19:29 | 32.76488 | -117.22910 | 2338 ft | 96 kts | 328° |
| 2026-05-04 19:30 | 32.77089 | -117.23286 | 2460 ft | 81 kts | 329° |
| 2026-05-04 19:30 | 32.77486 | -117.23541 | 2525 ft | 54 kts | 324° |
| 2026-05-04 19:30 | 32.77863 | -117.23776 | 2367 ft | 70 kts | 327° |
| 2026-05-04 19:30 | 32.78301 | -117.24080 | 2209 ft | 79 kts | 323° |
| 2026-05-04 19:31 | 32.78753 | -117.24450 | 2124 ft | 75 kts | 319° |
| 2026-05-04 19:31 | 32.79200 | -117.24786 | 2037 ft | 73 kts | 326° |
| 2026-05-04 19:31 | 32.79656 | -117.25114 | 1904 ft | 78 kts | 324° |
| 2026-05-04 19:31 | 32.80130 | -117.25428 | 1782 ft | 81 kts | 327° |
| 2026-05-04 19:32 | 32.80598 | -117.25755 | 1755 ft | 71 kts | 324° |
| 2026-05-04 19:32 | 32.81038 | -117.25908 | 1776 ft | 60 kts | 349° |
| 2026-05-04 19:32 | 32.81479 | -117.25875 | 1859 ft | 69 kts | 356° |
| 2026-05-04 19:32 | 32.81965 | -117.25813 | 2027 ft | 75 kts | 358° |
| 2026-05-04 19:33 | 32.82493 | -117.25716 | 2233 ft | 76 kts | 0° |
| 2026-05-04 19:33 | 32.83036 | -117.25565 | 2392 ft | 82 kts | 6° |
| 2026-05-04 19:33 | 32.83585 | -117.25417 | 2585 ft | 83 kts | 4° |
| 2026-05-04 19:33 | 32.84181 | -117.25321 | 2758 ft | 84 kts | 1° |
| 2026-05-04 19:34 | 32.84769 | -117.25221 | 2937 ft | 86 kts | 2° |
| 2026-05-04 19:34 | 32.85362 | -117.25155 | 3105 ft | 86 kts | 356° |
| 2026-05-04 19:34 | 32.85945 | -117.25137 | 3274 ft | 82 kts | 355° |
| 2026-05-04 19:34 | 32.86530 | -117.25137 | 3374 ft | 85 kts | 354° |
| 2026-05-04 19:35 | 32.87108 | -117.25137 | 3523 ft | 82 kts | 354° |
| 2026-05-04 19:35 | 32.87671 | -117.25138 | 3655 ft | 81 kts | 352° |
| 2026-05-04 19:35 | 32.88250 | -117.25166 | 3778 ft | 83 kts | 352° |
| 2026-05-04 19:35 | 32.88818 | -117.25211 | 3940 ft | 78 kts | 349° |
| 2026-05-04 19:36 | 32.89368 | -117.25248 | 4061 ft | 81 kts | 353° |
| 2026-05-04 19:36 | 32.89949 | -117.25200 | 4178 ft | 84 kts | 1° |
| 2026-05-04 19:36 | 32.90395 | -117.25099 | 4238 ft | 65 kts | 6° |
| 2026-05-04 19:36 | 32.90863 | -117.24965 | 4119 ft | 74 kts | 6° |
| 2026-05-04 19:37 | 32.91361 | -117.24814 | 4073 ft | 70 kts | 6° |
| 2026-05-04 19:37 | 32.91793 | -117.24661 | 4078 ft | 60 kts | 9° |
| 2026-05-04 19:37 | 32.92194 | -117.24509 | 4025 ft | 59 kts | 5° |
| 2026-05-04 19:37 | 32.92588 | -117.24391 | 3975 ft | 58 kts | 4° |
| 2026-05-04 19:38 | 32.93009 | -117.24269 | 3869 ft | 67 kts | 3° |
| 2026-05-04 19:38 | 32.93457 | -117.24143 | 3824 ft | 64 kts | 5° |
| 2026-05-04 19:38 | 32.93914 | -117.24009 | 3738 ft | 68 kts | 5° |
| 2026-05-04 19:38 | 32.94345 | -117.23910 | 3722 ft | 62 kts | 2° |
| 2026-05-04 19:39 | 32.94766 | -117.23827 | 3676 ft | 60 kts | 359° |
| 2026-05-04 19:39 | 32.95173 | -117.23746 | 3645 ft | 57 kts | 1° |
| 2026-05-04 19:39 | 32.95568 | -117.23656 | 3576 ft | 60 kts | 2° |
| 2026-05-04 19:39 | 32.95995 | -117.23573 | 3518 ft | 61 kts | 2° |
| 2026-05-04 19:40 | 32.96426 | -117.23480 | 3460 ft | 62 kts | 2° |
| 2026-05-04 19:40 | 32.96830 | -117.23421 | 3451 ft | 54 kts | 357° |
| 2026-05-04 19:40 | 32.97199 | -117.23377 | 3408 ft | 53 kts | 357° |
| 2026-05-04 19:40 | 32.97581 | -117.23318 | 3341 ft | 57 kts | 360° |
| 2026-05-04 19:41 | 32.98003 | -117.23273 | 3264 ft | 61 kts | 355° |
| 2026-05-04 19:41 | 32.98423 | -117.23263 | 3225 ft | 57 kts | 352° |
| 2026-05-04 19:41 | 32.98809 | -117.23280 | 3187 ft | 55 kts | 348° |
| 2026-05-04 19:41 | 32.99204 | -117.23312 | 3118 ft | 58 kts | 349° |
| 2026-05-04 19:42 | 32.99617 | -117.23335 | 3064 ft | 57 kts | 349° |
| 2026-05-04 19:42 | 32.99982 | -117.23316 | 3057 ft | 50 kts | 353° |
| 2026-05-04 19:42 | 33.00373 | -117.23325 | 2952 ft | 59 kts | 349° |
| 2026-05-04 19:42 | 33.00778 | -117.23363 | 2909 ft | 57 kts | 347° |
| 2026-05-04 19:43 | 33.01181 | -117.23389 | 2873 ft | 56 kts | 350° |
| 2026-05-04 19:43 | 33.01562 | -117.23399 | 2830 ft | 54 kts | 346° |
| 2026-05-04 19:43 | 33.01957 | -117.23438 | 2768 ft | 57 kts | 343° |
| 2026-05-04 19:43 | 33.02350 | -117.23483 | 2720 ft | 57 kts | 345° |
| 2026-05-04 19:44 | 33.02776 | -117.23591 | 2613 ft | 66 kts | 337° |
| 2026-05-04 19:44 | 33.03214 | -117.23703 | 2585 ft | 61 kts | 341° |
| 2026-05-04 19:44 | 33.03619 | -117.23778 | 2568 ft | 56 kts | 344° |
| 2026-05-04 19:44 | 33.03999 | -117.23827 | 2532 ft | 53 kts | 342° |
| 2026-05-04 19:45 | 33.04384 | -117.23875 | 2435 ft | 60 kts | 345° |
| 2026-05-04 19:45 | 33.04848 | -117.23968 | 2304 ft | 68 kts | 342° |
| 2026-05-04 19:45 | 33.05286 | -117.24053 | 2274 ft | 62 kts | 342° |
| 2026-05-04 19:45 | 33.05704 | -117.24171 | 2224 ft | 59 kts | 334° |
| 2026-05-04 19:46 | 33.06056 | -117.24266 | 2247 ft | 45 kts | 336° |
| 2026-05-04 19:46 | 33.06366 | -117.24345 | 2189 ft | 49 kts | 338° |
| 2026-05-04 19:46 | 33.06732 | -117.24470 | 2093 ft | 58 kts | 334° |
| 2026-05-04 19:46 | 33.07103 | -117.24635 | 2060 ft | 55 kts | 330° |
| 2026-05-04 19:47 | 33.07484 | -117.24735 | 2018 ft | 56 kts | 347° |
| 2026-05-04 19:47 | 33.07890 | -117.24740 | 1969 ft | 58 kts | 347° |
| 2026-05-04 19:47 | 33.08297 | -117.24719 | 1928 ft | 58 kts | 354° |
| 2026-05-04 19:47 | 33.08712 | -117.24701 | 1854 ft | 61 kts | 350° |
| 2026-05-04 19:48 | 33.09150 | -117.24696 | 1793 ft | 63 kts | 353° |
| 2026-05-04 19:48 | 33.09592 | -117.24731 | 1742 ft | 63 kts | 342° |
| 2026-05-04 19:48 | 33.10016 | -117.24796 | 1722 ft | 56 kts | 342° |
| 2026-05-04 19:48 | 33.10399 | -117.24900 | 1668 ft | 58 kts | 339° |
| 2026-05-04 19:49 | 33.10807 | -117.25024 | 1605 ft | 62 kts | 333° |
| 2026-05-04 19:49 | 33.11241 | -117.25180 | 1541 ft | 64 kts | 332° |
| 2026-05-04 19:49 | 33.11642 | -117.25340 | 1515 ft | 59 kts | 332° |
| 2026-05-04 19:49 | 33.12033 | -117.25510 | 1450 ft | 60 kts | 330° |
| 2026-05-04 19:50 | 33.12434 | -117.25704 | 1361 ft | 64 kts | 328° |
| 2026-05-04 19:50 | 33.12815 | -117.26032 | 1025 ft | 66 kts | 305° |
| 2026-05-04 19:50 | 33.13014 | -117.26486 | 701 ft | 63 kts | 287° |
| 2026-05-04 19:50 | 33.12988 | -117.26966 | 461 ft | 58 kts | 259° |
| 2026-05-04 19:51 | 33.12916 | -117.27426 | 319 ft | 41 kts | 267° |
| 2026-05-04 19:51 | 33.12887 | -117.27587 | 305 ft | 0 kts | 272° |
| 2026-05-04 19:51 | 33.12887 | -117.27595 | 305 ft | 5 kts | 266° |
| 2026-05-04 19:51 | 33.12872 | -117.27712 | 305 ft | 17 kts | 260° |
| 2026-05-04 19:52 | 33.12845 | -117.27867 | 305 ft | 16 kts | 243° |
| 2026-05-04 19:52 | 33.12783 | -117.27956 | 305 ft | 11 kts | 234° |
| 2026-05-04 19:52 | 33.12741 | -117.28027 | 306 ft | 19 kts | 257° |
| 2026-05-04 19:52 | 33.12658 | -117.28031 | 306 ft | 12 kts | 170° |
| 2026-05-04 19:53 | 33.12618 | -117.28057 | 306 ft | 2 kts | 254° |